This is the latest recevied weather packets stored in our database for station/object NW6UP. If no packets are shown the sender has not sent any weather packets the latest 1 day(s).
| Time | Temp. | Humidity | Pressure | Rain* | Wind** | Luminosity | Snow |
|---|---|---|---|---|---|---|---|
| 1778087066 | 18.89° C | 61% | 1020.1 hPa | 0 mm | - | - | - |
| 1778079867 | 13.89° C | 81% | 1019.7 hPa | 0 mm | - | - | - |
| 1778076268 | 13.33° C | 83% | 1019.4 hPa | 0 mm | - | - | - |
| 1778069066 | 13.89° C | 83% | 1018.5 hPa | 0 mm | - | - | - |
| 1778063066 | 13.89° C | 82% | 0 hPa | 0 mm | - | - | - |
| 1778060665 | 13.89° C | 80% | 0 hPa | 0 mm | - | - | - |
| 1778055866 | 13.89° C | 78% | 0 hPa | 0 mm | - | - | - |
| 1778054666 | 13.89° C | 78% | 0 hPa | 0 mm | - | - | - |
| 1778051066 | 14.44° C | 76% | 1017.5 hPa | 0 mm | - | - | - |
| 1778048665 | 14.44° C | 74% | 1017.4 hPa | 0 mm | - | - | - |
| 1778047465 | 15° C | 73% | 1017.2 hPa | 0 mm | - | - | - |
| 1778046265 | 15° C | 73% | 0 hPa | 0 mm | - | - | - |
| 1778045065 | 15° C | 72% | 1016.8 hPa | 0 mm | - | - | - |
| 1778041466 | 15.56° C | 69% | 1016.1 hPa | 0 mm | - | - | - |
| 1778040266 | 15.56° C | 68% | 1016 hPa | 0 mm | - | - | - |
| 1778039067 | 15.56° C | 68% | 1015.5 hPa | 0 mm | - | - | - |
| 1778037865 | 16.11° C | 68% | 1015.4 hPa | 0 mm | - | - | - |
| 1778036666 | 16.11° C | 67% | 1015.4 hPa | 0 mm | - | - | - |
| 1778034265 | 16.67° C | 66% | 0 hPa | 0 mm | - | - | - |
| 1778033066 | 16.67° C | 66% | 0 hPa | 0 mm | - | - | - |
| 1778031865 | 17.22° C | 65% | 0 hPa | 0 mm | - | - | - |
| 1778030666 | 17.22° C | 64% | 1015.2 hPa | 0 mm | - | - | - |
| 1778029465 | 17.78° C | 62% | 0 hPa | 0 mm | - | - | - |
| 1778028266 | 18.33° C | 61% | 0 hPa | 0 mm | - | - | - |
| 1778027066 | 18.33° C | 60% | 1014.9 hPa | 0 mm | - | - | - |
* Rain latest hour (hover to see other rain measurements)
** Current wind speed in m/s (hover to see current wind gust speed)